Time;durP1;ratioP1;P1;durP2;ratioP2;P2;SDS_P1;SDS_P2;PMS_P1;PMS_P2;Temp;Humidity;BMP_temperature;BMP_pressure;BME280_temperature;BME280_humidity;BME280_pressure;Samples;Min_cycle;Max_cycle;Signal;HPM_P1;HPM_P2
2022/09/07 00:02:09;;;;;;;2.37;1.20;;;22.10;99.90;;;;;;5030335;28;20445;-83
2022/09/07 00:04:40;;;;;;;1.57;1.00;;;22.20;99.90;;;;;;5035342;28;21106;-85
2022/09/07 00:07:22;;;;;;;1.27;1.10;;;22.40;99.90;;;;;;5037064;28;20437;-84
2022/09/07 00:09:50;;;;;;;1.57;1.40;;;22.40;99.80;;;;;;5034121;28;20476;-84
2022/09/07 00:12:18;;;;;;;2.43;1.43;;;22.30;99.90;;;;;;5034043;28;20464;-83
2022/09/07 00:14:49;;;;;;;1.70;1.20;;;22.00;99.90;;;;;;5032406;28;20472;-82
2022/09/07 00:17:24;;;;;;;5.37;1.33;;;21.90;99.90;;;;;;5032368;28;20576;-84
2022/09/07 00:19:56;;;;;;;2.27;1.40;;;21.80;99.90;;;;;;5035000;28;20495;-84
2022/09/07 00:22:29;;;;;;;1.70;1.13;;;21.80;99.90;;;;;;5038275;28;20488;-84
2022/09/07 00:25:10;;;;;;;1.87;1.60;;;21.90;99.90;;;;;;5029807;28;20572;-85
2022/09/07 00:27:49;;;;;;;3.10;1.60;;;22.10;99.90;;;;;;5043306;28;20468;-84
2022/09/07 00:30:22;;;;;;;2.80;1.23;;;22.40;99.90;;;;;;5031393;28;20461;-84
2022/09/07 00:33:00;;;;;;;4.10;1.93;;;22.40;99.90;;;;;;5023444;28;20448;-83
2022/09/07 00:36:07;;;;;;;2.07;1.17;;;22.40;99.90;;;;;;5023785;28;20445;-85
2022/09/07 00:38:44;;;;;;;1.97;1.03;;;22.30;99.90;;;;;;5027884;28;20480;-85
2022/09/07 00:41:15;;;;;;;1.33;1.10;;;22.20;99.90;;;;;;5028014;28;20463;-84
2022/09/07 00:44:09;;;;;;;2.40;1.47;;;22.10;99.90;;;;;;5031684;28;20460;-85
2022/09/07 00:46:42;;;;;;;1.97;1.03;;;21.90;99.90;;;;;;5020799;28;20461;-85
2022/09/07 00:49:20;;;;;;;2.23;1.20;;;21.90;99.90;;;;;;5046584;28;20489;-86
2022/09/07 00:51:59;;;;;;;2.37;1.23;;;21.80;99.90;;;;;;5028661;28;20500;-85
2022/09/07 00:54:49;;;;;;;1.30;1.10;;;22.00;99.90;;;;;;5032538;28;20464;-84
2022/09/07 00:57:26;;;;;;;3.83;1.30;;;22.10;99.90;;;;;;5030736;28;20493;-84
2022/09/07 00:59:56;;;;;;;1.80;1.37;;;22.20;99.90;;;;;;5036710;28;20564;-85
2022/09/07 01:02:31;;;;;;;1.60;1.37;;;22.00;99.90;;;;;;5040089;28;20449;-84
2022/09/07 01:05:22;;;;;;;1.30;1.10;;;21.80;99.90;;;;;;5041632;28;20437;-83
2022/09/07 01:07:59;;;;;;;5.17;1.50;;;21.60;99.90;;;;;;5041683;28;20468;-84
2022/09/07 01:10:30;;;;;;;2.10;1.53;;;21.40;99.90;;;;;;5041500;28;20461;-83
2022/09/07 01:13:01;;;;;;;2.37;1.43;;;21.20;99.90;;;;;;5039887;28;20453;-86
2022/09/07 01:16:06;;;;;;;1.40;1.30;;;21.20;99.90;;;;;;5041124;28;20441;-84
2022/09/07 01:19:22;;;;;;;2.97;1.13;;;21.10;99.90;;;;;;5037861;28;20706;-83
2022/09/07 01:22:08;;;;;;;5.10;1.50;;;21.00;99.90;;;;;;4978502;28;20443;-82
2022/09/07 01:25:11;;;;;;;6.17;1.40;;;20.80;99.90;;;;;;5026882;28;20457;-84
2022/09/07 01:27:44;;;;;;;1.30;1.10;;;20.90;99.90;;;;;;5025870;28;20540;-81
2022/09/07 01:30:23;;;;;;;2.33;1.30;;;21.00;99.90;;;;;;5020932;28;20463;-84
2022/09/07 01:33:08;;;;;;;2.70;1.30;;;20.90;99.90;;;;;;5030599;28;20525;-82
2022/09/07 01:36:05;;;;;;;1.90;1.40;;;20.80;99.90;;;;;;5027935;28;20469;-82
2022/09/07 01:39:06;;;;;;;1.57;1.00;;;20.80;99.90;;;;;;5030744;28;20473;-82
2022/09/07 01:41:59;;;;;;;2.13;1.47;;;20.70;99.90;;;;;;5028590;28;20468;-83
2022/09/07 01:44:48;;;;;;;2.47;1.27;;;20.70;99.90;;;;;;5029558;28;20449;-83
2022/09/07 01:47:44;;;;;;;4.37;1.27;;;20.70;99.90;;;;;;5029004;28;20449;-84
2022/09/07 01:50:30;;;;;;;1.83;1.20;;;20.70;99.90;;;;;;5028478;28;20459;-82
2022/09/07 01:53:24;;;;;;;1.30;0.90;;;20.80;99.90;;;;;;5028579;28;20556;-83
2022/09/07 01:56:07;;;;;;;3.47;1.50;;;20.90;99.90;;;;;;5034485;28;20471;-84
2022/09/07 01:59:07;;;;;;;1.50;0.93;;;21.00;99.90;;;;;;5032046;28;20465;-83
2022/09/07 02:02:05;;;;;;;3.23;1.10;;;21.00;99.90;;;;;;5033970;28;20526;-83
2022/09/07 02:04:53;;;;;;;1.97;1.10;;;21.00;99.90;;;;;;5033656;28;20484;-84
2022/09/07 02:07:35;;;;;;;1.90;0.90;;;20.90;99.90;;;;;;5031293;28;20459;-84
2022/09/07 02:10:13;;;;;;;1.60;1.13;;;20.90;99.90;;;;;;5036504;28;20461;-83
2022/09/07 02:12:44;;;;;;;1.73;0.90;;;20.90;99.90;;;;;;5033463;28;20452;-84
2022/09/07 02:15:31;;;;;;;0.90;0.90;;;20.90;99.90;;;;;;5039783;28;20457;-83
2022/09/07 02:18:27;;;;;;;2.00;1.80;;;20.80;99.90;;;;;;5040175;28;20477;-85
2022/09/07 02:21:01;;;;;;;1.67;1.30;;;20.90;99.90;;;;;;5038931;28;20468;-84
2022/09/07 02:23:48;;;;;;;2.40;1.40;;;21.00;99.90;;;;;;5044452;28;20555;-85
2022/09/07 02:26:22;;;;;;;2.10;1.87;;;21.00;99.90;;;;;;5023433;28;20453;-83
2022/09/07 02:28:54;;;;;;;1.90;1.20;;;20.90;99.90;;;;;;5032014;28;20485;-85
2022/09/07 02:31:27;;;;;;;1.30;1.20;;;21.00;99.90;;;;;;5033229;28;20543;-85
2022/09/07 02:34:05;;;;;;;2.53;1.33;;;21.00;99.90;;;;;;5043649;28;20522;-83
2022/09/07 02:36:49;;;;;;;2.53;1.60;;;20.80;99.90;;;;;;5027692;28;20484;-82
2022/09/07 02:39:23;;;;;;;2.47;1.40;;;20.70;99.90;;;;;;5027819;28;20473;-84
2022/09/07 02:41:55;;;;;;;2.33;1.20;;;20.70;99.90;;;;;;5028649;28;20457;-82
2022/09/07 02:44:31;;;;;;;4.70;1.70;;;20.70;99.90;;;;;;5030181;28;20572;-86
2022/09/07 02:47:24;;;;;;;2.03;1.70;;;20.60;99.90;;;;;;5031060;28;20497;-84
2022/09/07 02:50:11;;;;;;;2.10;1.30;;;20.40;99.90;;;;;;5033330;28;20489;-85
2022/09/07 02:52:44;;;;;;;1.50;1.40;;;20.40;99.90;;;;;;5036227;28;20469;-86
2022/09/07 02:55:54;;;;;;;1.37;1.20;;;20.20;99.90;;;;;;5042780;28;20483;-85
2022/09/07 02:58:43;;;;;;;2.03;1.40;;;20.20;99.90;;;;;;5062128;28;20493;-85
2022/09/07 03:01:32;;;;;;;2.63;2.00;;;20.20;99.90;;;;;;5049094;28;20487;-83
2022/09/07 03:04:18;;;;;;;2.50;2.30;;;20.40;99.90;;;;;;5048070;28;20460;-84
2022/09/07 03:07:01;;;;;;;2.40;2.20;;;20.30;99.90;;;;;;5049427;28;20552;-84
2022/09/07 03:09:44;;;;;;;2.87;2.07;;;20.40;99.90;;;;;;5046138;28;21019;-84
2022/09/07 03:12:12;;;;;;;2.93;2.70;;;20.40;99.90;;;;;;5048245;28;20456;-82
2022/09/07 03:14:53;;;;;;;3.90;2.50;;;20.20;99.90;;;;;;5044657;28;20480;-84
2022/09/07 03:17:27;;;;;;;2.90;2.50;;;20.20;99.90;;;;;;5024069;28;21029;-83
2022/09/07 03:19:59;;;;;;;2.20;2.10;;;20.10;99.90;;;;;;5025198;28;20465;-84
2022/09/07 03:22:27;;;;;;;3.97;3.57;;;20.00;99.90;;;;;;5024884;28;20718;-84
2022/09/07 03:24:57;;;;;;;4.60;3.90;;;20.10;99.90;;;;;;5024652;28;20449;-84
2022/09/07 03:27:25;;;;;;;4.17;3.77;;;20.00;99.90;;;;;;5028600;28;20452;-83
2022/09/07 03:29:52;;;;;;;3.93;3.63;;;20.20;99.90;;;;;;5027180;28;20485;-84
2022/09/07 03:32:19;;;;;;;4.00;3.13;;;20.30;99.90;;;;;;5026689;28;20449;-85
2022/09/07 03:34:47;;;;;;;3.67;3.30;;;20.30;99.90;;;;;;5030717;28;20466;-83
2022/09/07 03:37:14;;;;;;;3.03;2.73;;;20.20;99.90;;;;;;5026639;28;22068;-84
2022/09/07 03:39:41;;;;;;;5.50;4.90;;;20.30;99.90;;;;;;5030201;28;20471;-85
2022/09/07 03:42:07;;;;;;;4.57;4.17;;;20.30;99.90;;;;;;5034116;28;20437;-83
2022/09/07 03:44:35;;;;;;;6.63;5.63;;;20.30;99.90;;;;;;5033986;28;20484;-83
2022/09/07 03:47:02;;;;;;;4.33;3.80;;;20.30;99.90;;;;;;5027995;28;20439;-85
2022/09/07 03:49:29;;;;;;;4.47;3.00;;;20.30;99.90;;;;;;5031406;28;20477;-84
2022/09/07 03:51:56;;;;;;;3.07;2.73;;;20.30;99.90;;;;;;5031158;28;20457;-85
2022/09/07 03:54:23;;;;;;;2.00;1.87;;;20.10;99.90;;;;;;5030634;28;20496;-83
2022/09/07 03:56:49;;;;;;;2.67;2.30;;;20.30;99.90;;;;;;5030697;28;20466;-83
2022/09/07 03:59:16;;;;;;;4.37;2.40;;;20.10;99.90;;;;;;5030229;28;20485;-83
2022/09/07 04:01:46;;;;;;;2.10;1.90;;;20.10;99.90;;;;;;5031579;28;20433;-84
2022/09/07 04:04:13;;;;;;;2.93;2.73;;;20.20;99.90;;;;;;5029857;28;20486;-82
2022/09/07 04:06:39;;;;;;;3.17;2.63;;;20.00;99.90;;;;;;5029099;28;20454;-84
2022/09/07 04:09:11;;;;;;;3.87;3.10;;;20.10;99.90;;;;;;5031650;28;20473;-84
2022/09/07 04:11:41;;;;;;;4.33;3.57;;;20.10;99.90;;;;;;5032043;28;20430;-83
2022/09/07 04:14:09;;;;;;;3.30;2.87;;;20.00;99.90;;;;;;5031820;28;20460;-84
2022/09/07 04:16:36;;;;;;;4.00;2.63;;;19.90;99.90;;;;;;5031905;28;20457;-84
2022/09/07 04:19:04;;;;;;;4.57;2.70;;;20.00;99.90;;;;;;5029867;28;20495;-85
2022/09/07 04:21:32;;;;;;;3.10;2.80;;;20.00;99.90;;;;;;5032152;28;20496;-83
2022/09/07 04:23:59;;;;;;;4.40;3.10;;;19.90;99.90;;;;;;5031582;28;21182;-87
2022/09/07 04:26:32;;;;;;;3.07;2.80;;;19.90;99.90;;;;;;5030524;28;20538;-84
2022/09/07 04:29:00;;;;;;;2.47;2.27;;;19.90;99.90;;;;;;5027982;28;20496;-84
2022/09/07 04:31:27;;;;;;;4.80;2.60;;;20.00;99.90;;;;;;5020472;28;21379;-84
2022/09/07 04:33:55;;;;;;;3.40;2.67;;;20.10;99.90;;;;;;5027136;28;20544;-82
2022/09/07 04:36:23;;;;;;;3.17;2.63;;;20.10;99.90;;;;;;5027514;28;20468;-84
2022/09/07 04:38:58;;;;;;;2.47;2.27;;;20.00;99.90;;;;;;5029860;28;20485;-83
2022/09/07 04:41:26;;;;;;;2.40;1.93;;;19.90;99.90;;;;;;5024047;28;20480;-84
2022/09/07 04:43:59;;;;;;;2.07;1.93;;;19.80;99.90;;;;;;5030369;28;20522;-85
2022/09/07 04:46:34;;;;;;;2.40;2.17;;;19.80;99.90;;;;;;5030899;28;20826;-85
2022/09/07 04:49:05;;;;;;;2.40;2.10;;;19.80;99.90;;;;;;5031673;28;20929;-85
2022/09/07 04:51:32;;;;;;;3.17;2.83;;;19.70;99.90;;;;;;5030512;28;20476;-87
2022/09/07 04:54:01;;;;;;;3.07;2.83;;;19.70;99.90;;;;;;5031542;28;20442;-84
2022/09/07 04:56:29;;;;;;;3.40;2.60;;;19.70;99.90;;;;;;5031991;28;20449;-86
2022/09/07 04:58:56;;;;;;;3.87;2.33;;;19.70;99.90;;;;;;5028458;28;20616;-84
2022/09/07 05:01:24;;;;;;;3.37;2.20;;;19.70;99.90;;;;;;5030894;28;20491;-85
2022/09/07 05:03:51;;;;;;;4.07;3.00;;;19.60;99.90;;;;;;5045688;28;20457;-84
2022/09/07 05:06:20;;;;;;;3.07;2.77;;;19.60;99.90;;;;;;5029918;28;20437;-85
2022/09/07 05:08:49;;;;;;;3.30;2.73;;;19.70;99.90;;;;;;5028248;28;20469;-84
2022/09/07 05:11:17;;;;;;;6.27;3.57;;;19.70;99.90;;;;;;5027799;28;20446;-85
2022/09/07 05:13:44;;;;;;;6.20;5.70;;;19.70;99.90;;;;;;5027893;28;20460;-85
2022/09/07 05:16:14;;;;;;;5.60;5.00;;;19.80;99.90;;;;;;5044476;28;20426;-85
2022/09/07 05:18:41;;;;;;;4.43;3.90;;;19.80;99.90;;;;;;5028102;28;20909;-86
2022/09/07 05:21:14;;;;;;;5.80;3.20;;;19.80;99.90;;;;;;5033497;28;20450;-84
2022/09/07 05:23:42;;;;;;;3.50;2.83;;;19.80;99.90;;;;;;5026898;28;20995;-84
2022/09/07 05:26:10;;;;;;;3.87;3.50;;;19.80;99.90;;;;;;5022768;28;20448;-84
2022/09/07 05:28:37;;;;;;;5.30;3.70;;;19.80;99.90;;;;;;5024501;28;20497;-84
2022/09/07 05:31:12;;;;;;;4.40;3.77;;;19.80;99.90;;;;;;5033674;28;20457;-83
2022/09/07 05:33:50;;;;;;;5.83;3.93;;;19.80;99.90;;;;;;5029914;28;20445;-83
2022/09/07 05:36:37;;;;;;;5.77;4.53;;;19.70;99.90;;;;;;5029331;28;20434;-85
2022/09/07 05:39:06;;;;;;;9.00;4.43;;;19.60;99.90;;;;;;5031533;28;20485;-84
2022/09/07 05:41:33;;;;;;;5.30;4.33;;;19.60;99.90;;;;;;5033272;28;20540;-85
2022/09/07 05:44:00;;;;;;;6.03;5.20;;;19.70;99.90;;;;;;5033593;28;20499;-84
2022/09/07 05:46:48;;;;;;;6.70;6.10;;;19.80;99.90;;;;;;5031802;28;20441;-84
2022/09/07 05:49:14;;;;;;;9.67;6.53;;;19.70;99.90;;;;;;5032648;28;20489;-84
2022/09/07 05:51:41;;;;;;;9.20;6.63;;;19.60;99.90;;;;;;5032156;28;20472;-85
2022/09/07 05:54:09;;;;;;;11.27;9.90;;;19.70;99.90;;;;;;5033182;28;20457;-84
2022/09/07 05:56:36;;;;;;;10.30;9.20;;;19.90;99.90;;;;;;5040672;28;20448;-85
2022/09/07 05:59:03;;;;;;;14.83;11.40;;;19.80;99.90;;;;;;5043804;28;20489;-85
2022/09/07 06:01:30;;;;;;;14.43;12.60;;;19.70;99.90;;;;;;5041852;28;20445;-85
2022/09/07 06:03:57;;;;;;;15.47;10.90;;;19.60;99.90;;;;;;5025245;28;20462;-85
2022/09/07 06:06:24;;;;;;;12.30;11.00;;;19.80;99.90;;;;;;5030113;28;20544;-85
2022/09/07 06:08:52;;;;;;;15.30;11.07;;;19.90;99.90;;;;;;5031192;28;20445;-86
2022/09/07 06:11:24;;;;;;;14.40;12.20;;;19.90;99.90;;;;;;5034662;28;20463;-83
2022/09/07 06:13:51;;;;;;;14.40;12.60;;;19.70;99.90;;;;;;5029218;28;20463;-83
2022/09/07 06:16:18;;;;;;;13.53;11.60;;;19.70;99.90;;;;;;5029918;28;20450;-84
2022/09/07 06:18:47;;;;;;;13.60;11.33;;;19.70;99.90;;;;;;5027913;28;20485;-85
2022/09/07 06:21:15;;;;;;;13.53;10.77;;;19.60;99.90;;;;;;5028086;28;20453;-84
2022/09/07 06:23:43;;;;;;;14.90;12.53;;;19.70;99.90;;;;;;5033253;28;20464;-84
2022/09/07 06:26:11;;;;;;;17.23;12.40;;;20.50;99.90;;;;;;5034098;28;20445;-84
2022/09/07 06:28:40;;;;;;;14.03;11.97;;;21.30;99.90;;;;;;5033382;28;20473;-85
2022/09/07 06:31:18;;;;;;;14.13;11.43;;;22.10;99.90;;;;;;5031834;28;20449;-85
2022/09/07 06:33:46;;;;;;;13.10;10.73;;;23.50;99.90;;;;;;5035855;28;20437;-85
2022/09/07 06:36:16;;;;;;;12.80;10.40;;;24.00;98.50;;;;;;5031042;28;20468;-87
2022/09/07 06:38:44;;;;;;;15.27;10.67;;;24.40;97.30;;;;;;5034141;28;20484;-84
2022/09/07 06:41:15;;;;;;;11.27;10.07;;;25.20;97.20;;;;;;5036368;28;20445;-85
2022/09/07 06:44:02;;;;;;;9.40;8.40;;;26.30;94.30;;;;;;5036322;28;20517;-85
2022/09/07 06:46:29;;;;;;;9.47;8.57;;;27.60;91.60;;;;;;5041530;28;20452;-87
2022/09/07 06:49:16;;;;;;;10.00;9.00;;;26.50;91.40;;;;;;5026467;28;20469;-83
2022/09/07 06:51:43;;;;;;;10.70;9.47;;;24.90;94.00;;;;;;5024396;28;20453;-84
2022/09/07 06:54:10;;;;;;;11.20;8.50;;;23.80;95.80;;;;;;5026235;28;20457;-83
2022/09/07 06:56:57;;;;;;;13.90;9.60;;;23.00;97.80;;;;;;5025704;28;20436;-84
2022/09/07 06:59:23;;;;;;;10.50;9.50;;;22.30;99.30;;;;;;5028401;28;20542;-83
2022/09/07 07:01:50;;;;;;;10.60;9.50;;;22.20;99.90;;;;;;5029764;28;20488;-84
2022/09/07 07:04:17;;;;;;;12.57;9.87;;;21.80;99.90;;;;;;5030818;28;20515;-84
2022/09/07 07:06:44;;;;;;;10.37;9.30;;;21.60;99.90;;;;;;5023252;28;20441;-85
2022/09/07 07:09:12;;;;;;;14.23;9.83;;;21.50;99.90;;;;;;5029811;28;20492;-83
2022/09/07 07:11:42;;;;;;;10.50;9.37;;;21.20;99.90;;;;;;5022799;28;20528;-85
2022/09/07 07:14:14;;;;;;;10.90;9.60;;;21.20;99.90;;;;;;5028817;28;20484;-84
2022/09/07 07:16:40;;;;;;;13.10;9.97;;;21.30;99.90;;;;;;5026558;28;20446;-86
2022/09/07 07:19:07;;;;;;;10.93;9.73;;;22.50;99.90;;;;;;5025005;28;20529;-86
2022/09/07 07:21:34;;;;;;;12.10;10.07;;;23.10;99.90;;;;;;5031469;28;20764;-86
2022/09/07 07:24:21;;;;;;;9.40;8.03;;;24.00;99.00;;;;;;5030803;28;20453;-86
2022/09/07 07:26:48;;;;;;;8.10;7.30;;;26.50;95.60;;;;;;5030089;28;20461;-86
2022/09/07 07:29:15;;;;;;;6.40;5.80;;;27.30;91.80;;;;;;5029307;28;20472;-85
2022/09/07 07:31:44;;;;;;;6.23;5.63;;;27.30;90.80;;;;;;5027038;28;20449;-85
2022/09/07 07:34:11;;;;;;;5.87;5.37;;;27.40;91.40;;;;;;5028163;28;20459;-86
2022/09/07 07:36:38;;;;;;;6.03;4.90;;;29.20;84.50;;;;;;5029373;28;21047;-87
2022/09/07 07:39:04;;;;;;;5.63;5.13;;;28.90;82.10;;;;;;5030268;28;20482;-84
2022/09/07 07:41:31;;;;;;;5.80;5.20;;;28.90;81.50;;;;;;5029220;28;20450;-85
2022/09/07 07:44:19;;;;;;;5.43;4.93;;;28.50;83.20;;;;;;5026955;28;20493;-84
2022/09/07 07:46:48;;;;;;;5.63;4.77;;;29.50;81.00;;;;;;5029023;28;20447;-86
2022/09/07 07:49:15;;;;;;;5.23;4.50;;;31.10;74.80;;;;;;5031555;28;20533;-83
2022/09/07 07:51:42;;;;;;;7.90;4.83;;;32.30;69.30;;;;;;5033261;28;20469;-86
2022/09/07 07:54:29;;;;;;;8.73;4.20;;;33.60;63.10;;;;;;5029449;28;20551;-85
2022/09/07 07:56:55;;;;;;;4.40;4.00;;;34.60;58.10;;;;;;5028642;28;20549;-86
2022/09/07 07:59:22;;;;;;;3.40;3.10;;;35.00;56.20;;;;;;5029289;28;20485;-84
2022/09/07 08:01:49;;;;;;;4.00;3.70;;;35.50;53.50;;;;;;5031036;28;20457;-85
2022/09/07 08:04:16;;;;;;;4.13;3.07;;;33.60;54.70;;;;;;5030657;28;20449;-86
2022/09/07 08:06:43;;;;;;;3.67;3.20;;;31.60;59.00;;;;;;5029983;28;20464;-84
2022/09/07 08:09:10;;;;;;;3.33;3.13;;;30.20;63.20;;;;;;5023712;28;20469;-83
2022/09/07 08:11:39;;;;;;;3.30;3.00;;;29.90;66.10;;;;;;5030651;28;21041;-85
2022/09/07 08:14:12;;;;;;;4.20;3.80;;;30.40;66.00;;;;;;5034457;28;20828;-83
2022/09/07 08:16:42;;;;;;;3.97;3.53;;;30.90;63.80;;;;;;5032474;28;20434;-86
2022/09/07 08:19:09;;;;;;;2.87;2.67;;;30.80;63.70;;;;;;5030643;28;20488;-85
2022/09/07 08:21:44;;;;;;;2.80;2.60;;;31.50;60.90;;;;;;5030668;28;20441;-84
2022/09/07 08:24:11;;;;;;;2.73;2.47;;;31.90;59.70;;;;;;5033187;28;20529;-86
2022/09/07 08:26:38;;;;;;;2.33;2.13;;;32.50;58.50;;;;;;5034236;28;20621;-86
2022/09/07 08:29:04;;;;;;;3.20;2.67;;;32.90;57.00;;;;;;5035055;28;20496;-84
2022/09/07 08:31:31;;;;;;;3.27;2.90;;;32.60;56.60;;;;;;5034470;28;20473;-86
2022/09/07 08:33:59;;;;;;;4.73;3.20;;;32.70;57.20;;;;;;5036781;28;20461;-86
2022/09/07 08:36:26;;;;;;;3.30;3.00;;;32.60;57.10;;;;;;5036124;28;20445;-84
2022/09/07 08:38:52;;;;;;;3.23;2.93;;;33.40;55.00;;;;;;5035799;28;20917;-85
2022/09/07 08:42:03;;;;;;;3.40;3.10;;;33.30;55.00;;;;;;5038604;28;20441;-86
2022/09/07 08:44:40;;;;;;;3.20;2.87;;;32.00;56.50;;;;;;5042041;28;20503;-85
2022/09/07 08:47:30;;;;;;;4.03;2.97;;;29.60;62.40;;;;;;5058283;28;20449;-84
2022/09/07 08:50:09;;;;;;;3.10;2.80;;;29.20;66.00;;;;;;5039268;28;20477;-84
2022/09/07 08:52:46;;;;;;;4.40;3.80;;;28.90;66.60;;;;;;5027846;28;20480;-86
2022/09/07 08:55:28;;;;;;;4.07;2.77;;;27.90;70.40;;;;;;5031180;28;20525;-86
2022/09/07 08:58:11;;;;;;;3.07;2.77;;;26.80;76.70;;;;;;5028563;28;20433;-87
2022/09/07 09:00:58;;;;;;;4.83;2.50;;;26.00;80.60;;;;;;5024256;28;20464;-84
2022/09/07 09:03:47;;;;;;;3.60;2.90;;;25.60;85.60;;;;;;5023257;28;20529;-84
2022/09/07 09:06:47;;;;;;;4.47;3.50;;;27.20;85.20;;;;;;5031074;28;20535;-86
2022/09/07 09:09:24;;;;;;;4.30;3.53;;;27.80;79.20;;;;;;5033148;28;20465;-84
2022/09/07 09:11:56;;;;;;;2.97;2.70;;;28.50;75.40;;;;;;5031573;28;20465;-85
2022/09/07 09:14:31;;;;;;;4.70;2.87;;;29.30;72.70;;;;;;5026484;28;20477;-87
2022/09/07 09:17:07;;;;;;;3.27;2.97;;;29.40;70.70;;;;;;5029142;28;20457;-88
2022/09/07 09:19:54;;;;;;;2.33;2.17;;;29.60;69.90;;;;;;5031439;28;20476;-85
2022/09/07 09:22:25;;;;;;;2.90;2.13;;;29.40;69.00;;;;;;5029597;28;20472;-88
2022/09/07 09:24:58;;;;;;;2.80;2.40;;;28.50;71.80;;;;;;5028091;28;20453;-83
2022/09/07 09:27:24;;;;;;;1.97;1.83;;;27.60;74.60;;;;;;5027836;28;20441;-84
2022/09/07 09:29:51;;;;;;;2.00;1.90;;;27.10;76.10;;;;;;5029515;28;20465;-86
2022/09/07 09:32:32;;;;;;;2.20;1.90;;;27.30;77.30;;;;;;5029465;28;20437;-87
2022/09/07 09:35:00;;;;;;;4.33;4.03;;;28.50;75.70;;;;;;5028346;28;20450;-87
2022/09/07 09:37:35;;;;;;;3.50;2.57;;;29.50;69.70;;;;;;5039910;28;22068;-85
2022/09/07 09:40:02;;;;;;;4.00;2.60;;;30.50;64.70;;;;;;5028732;28;20518;-85
2022/09/07 09:42:33;;;;;;;3.33;3.13;;;32.10;60.30;;;;;;5029073;28;20448;-86
2022/09/07 09:45:15;;;;;;;3.87;2.50;;;33.90;56.10;;;;;;5027168;28;20457;-85
2022/09/07 09:47:51;;;;;;;1.50;1.40;;;34.60;52.90;;;;;;5027928;28;20451;-85
2022/09/07 09:50:23;;;;;;;1.97;1.67;;;34.60;50.90;;;;;;5026361;28;20807;-85
2022/09/07 09:53:28;;;;;;;2.30;2.10;;;33.70;51.40;;;;;;5027149;28;20453;-85
2022/09/07 09:56:00;;;;;;;2.47;1.70;;;32.20;53.40;;;;;;5030234;28;20472;-84
2022/09/07 09:58:36;;;;;;;3.20;2.07;;;30.60;56.70;;;;;;5032494;28;20519;-86
2022/09/07 10:01:31;;;;;;;2.70;2.00;;;30.60;58.40;;;;;;5033431;28;20611;-83
2022/09/07 10:04:29;;;;;;;2.90;1.77;;;30.10;59.20;;;;;;5036145;28;20449;-86
2022/09/07 10:07:14;;;;;;;2.67;1.63;;;29.40;62.00;;;;;;5045842;28;20479;-85
2022/09/07 10:09:47;;;;;;;2.37;2.13;;;29.90;60.00;;;;;;5031833;28;20477;-86
2022/09/07 10:12:40;;;;;;;1.87;1.77;;;30.20;60.00;;;;;;5036565;28;20454;-85
2022/09/07 10:15:35;;;;;;;1.80;1.70;;;31.40;57.00;;;;;;5036411;28;20492;-87
2022/09/07 10:18:21;;;;;;;3.63;2.67;;;30.30;58.00;;;;;;5031527;28;20480;-85
2022/09/07 10:20:48;;;;;;;2.17;1.70;;;30.00;59.40;;;;;;5032607;28;20437;-86
2022/09/07 10:23:22;;;;;;;2.27;1.50;;;29.20;60.20;;;;;;5032034;28;20499;-84
2022/09/07 10:25:49;;;;;;;1.80;1.63;;;28.90;62.40;;;;;;5026145;28;20521;-86
2022/09/07 10:28:22;;;;;;;2.30;2.10;;;29.20;62.10;;;;;;5031902;28;20495;-87
2022/09/07 10:31:01;;;;;;;2.10;1.90;;;29.20;62.30;;;;;;5031862;28;20477;-86
2022/09/07 10:33:30;;;;;;;1.93;1.63;;;29.50;61.70;;;;;;5028413;28;20452;-86
2022/09/07 10:36:14;;;;;;;3.07;2.07;;;29.60;61.40;;;;;;5025138;28;20453;-87
2022/09/07 10:38:59;;;;;;;1.97;1.30;;;30.60;59.40;;;;;;5030830;28;20519;-86
2022/09/07 10:41:38;;;;;;;2.93;2.40;;;31.40;58.10;;;;;;5032395;28;20533;-86
2022/09/07 10:44:34;;;;;;;2.80;1.73;;;31.80;56.40;;;;;;5029747;28;20461;-85
2022/09/07 10:47:27;;;;;;;3.10;1.60;;;32.00;56.30;;;;;;4996627;28;20477;-86
2022/09/07 10:50:33;;;;;;;1.53;1.43;;;33.20;53.90;;;;;;5030499;28;20504;-87
2022/09/07 10:53:39;;;;;;;1.93;1.60;;;32.70;53.90;;;;;;5019163;28;20481;-87
2022/09/07 10:56:31;;;;;;;3.33;1.93;;;33.60;52.40;;;;;;5030902;28;20469;-87
2022/09/07 10:59:22;;;;;;;2.17;1.60;;;32.30;53.60;;;;;;5034457;28;20481;-85
2022/09/07 11:02:25;;;;;;;2.00;1.90;;;31.10;55.80;;;;;;5031653;28;21037;-86
2022/09/07 11:05:08;;;;;;;2.07;1.43;;;30.90;57.40;;;;;;5035313;28;20448;-84
2022/09/07 11:08:04;;;;;;;2.50;1.53;;;31.40;56.10;;;;;;5038628;28;20465;-86
2022/09/07 11:10:46;;;;;;;1.60;1.40;;;30.70;56.60;;;;;;5043767;28;20472;-87
2022/09/07 11:13:21;;;;;;;3.00;1.50;;;29.90;58.70;;;;;;5022503;28;20449;-85
2022/09/07 11:16:05;;;;;;;2.17;1.97;;;29.80;59.90;;;;;;5027558;28;20571;-88
2022/09/07 11:18:48;;;;;;;2.50;1.60;;;29.80;60.30;;;;;;5044049;28;20469;-85
2022/09/07 11:21:20;;;;;;;2.30;1.70;;;30.00;59.20;;;;;;5054512;28;20573;-86
2022/09/07 11:24:29;;;;;;;1.90;1.80;;;29.20;61.50;;;;;;5041898;28;20469;-87
2022/09/07 11:27:20;;;;;;;1.73;1.63;;;28.60;65.00;;;;;;5046171;28;20519;-85
2022/09/07 11:30:03;;;;;;;2.30;2.00;;;28.20;66.30;;;;;;5047801;28;21317;-86
2022/09/07 11:32:44;;;;;;;2.70;1.77;;;27.70;69.20;;;;;;5045910;28;20445;-85
2022/09/07 11:35:11;;;;;;;2.47;1.83;;;27.60;69.50;;;;;;5044975;28;20442;-86
2022/09/07 11:37:56;;;;;;;2.17;1.80;;;27.60;69.70;;;;;;5043658;28;20528;-86
2022/09/07 11:40:41;;;;;;;1.93;1.63;;;27.80;69.60;;;;;;5041315;28;20480;-87
2022/09/07 11:43:36;;;;;;;2.43;1.70;;;28.40;69.20;;;;;;5031875;28;20962;-85
2022/09/07 11:46:31;;;;;;;2.70;1.37;;;29.90;61.70;;;;;;5033301;28;20728;-86
2022/09/07 11:49:19;;;;;;;2.30;1.40;;;29.80;62.30;;;;;;5043850;28;20517;-87
2022/09/07 11:52:05;;;;;;;2.40;2.00;;;29.80;61.80;;;;;;5030215;28;20453;-86
2022/09/07 11:55:06;;;;;;;2.03;1.50;;;29.70;62.20;;;;;;5030582;28;20469;-84
2022/09/07 11:58:17;;;;;;;2.10;1.90;;;29.40;62.60;;;;;;5036439;28;20432;-85
2022/09/07 12:00:54;;;;;;;1.70;1.60;;;29.30;62.60;;;;;;5042805;28;20499;-86
2022/09/07 12:03:36;;;;;;;1.73;1.63;;;29.10;64.20;;;;;;5046129;28;20449;-85
2022/09/07 12:06:39;;;;;;;2.13;1.93;;;29.00;65.10;;;;;;5043771;28;20450;-86
2022/09/07 12:09:50;;;;;;;3.47;2.13;;;29.20;64.40;;;;;;5016194;28;21902;-84
2022/09/07 12:12:51;;;;;;;1.77;1.40;;;29.50;62.90;;;;;;5042988;28;20463;-84
2022/09/07 12:15:34;;;;;;;2.43;2.00;;;29.80;61.70;;;;;;5044781;28;20468;-86
2022/09/07 12:18:16;;;;;;;2.00;1.70;;;29.90;61.30;;;;;;5054192;28;20500;-85
2022/09/07 12:20:49;;;;;;;1.40;1.30;;;30.80;58.50;;;;;;5034102;28;20473;-87
2022/09/07 12:23:34;;;;;;;1.93;1.70;;;30.60;57.50;;;;;;5033303;28;20500;-86
2022/09/07 12:26:32;;;;;;;1.73;1.43;;;30.20;57.90;;;;;;5034890;28;20464;-85
2022/09/07 12:28:59;;;;;;;2.60;2.13;;;29.90;59.00;;;;;;5028336;28;20501;-84
2022/09/07 12:31:46;;;;;;;2.17;1.87;;;30.10;59.50;;;;;;5035309;28;20454;-85
2022/09/07 12:34:33;;;;;;;1.83;1.60;;;29.70;60.40;;;;;;5034785;28;20449;-84
2022/09/07 12:37:08;;;;;;;2.20;2.00;;;29.40;62.00;;;;;;5029435;28;20967;-84
2022/09/07 12:39:42;;;;;;;4.07;1.67;;;29.60;61.70;;;;;;5036470;28;20473;-86
2022/09/07 12:42:25;;;;;;;2.00;1.90;;;30.10;61.10;;;;;;5039771;28;20468;-85
2022/09/07 12:45:27;;;;;;;4.73;1.77;;;31.70;56.90;;;;;;5033856;28;20480;-86
2022/09/07 12:48:05;;;;;;;3.90;1.63;;;31.20;56.70;;;;;;5044535;28;20492;-84
2022/09/07 12:50:35;;;;;;;1.30;1.20;;;31.20;56.90;;;;;;5029200;28;20445;-84
2022/09/07 12:53:11;;;;;;;1.80;1.50;;;31.30;55.90;;;;;;5030413;28;20480;-84
2022/09/07 12:56:16;;;;;;;1.97;1.60;;;31.40;55.40;;;;;;5022966;28;20576;-85
2022/09/07 12:59:22;;;;;;;3.80;2.27;;;31.90;54.80;;;;;;5026168;28;20481;-85
2022/09/07 13:02:23;;;;;;;2.33;1.80;;;31.50;55.00;;;;;;5006310;28;20472;-85
2022/09/07 13:05:18;;;;;;;4.70;1.50;;;30.90;55.30;;;;;;5026218;28;20465;-85
2022/09/07 13:08:15;;;;;;;1.70;1.60;;;30.70;56.10;;;;;;5027108;28;20469;-83
2022/09/07 13:10:43;;;;;;;2.10;1.50;;;31.00;55.80;;;;;;5028104;28;20493;-83
2022/09/07 13:13:24;;;;;;;2.30;1.60;;;30.90;55.60;;;;;;5028261;28;20469;-86
2022/09/07 13:16:14;;;;;;;2.27;1.50;;;31.20;55.50;;;;;;5027192;28;20455;-83
2022/09/07 13:18:45;;;;;;;1.53;1.43;;;31.10;54.50;;;;;;5024918;28;20532;-83
2022/09/07 13:21:13;;;;;;;1.40;1.30;;;30.80;54.50;;;;;;5025297;28;20491;-86
2022/09/07 13:23:42;;;;;;;3.20;1.60;;;30.70;54.80;;;;;;5017822;28;20587;-84
2022/09/07 13:26:32;;;;;;;1.93;1.50;;;30.40;54.90;;;;;;5022691;28;20496;-84
2022/09/07 13:29:04;;;;;;;1.43;1.33;;;30.00;55.70;;;;;;5021227;28;20567;-81
2022/09/07 13:32:05;;;;;;;2.60;1.57;;;30.00;56.10;;;;;;5024049;28;20456;-82
2022/09/07 13:34:33;;;;;;;1.50;1.40;;;30.10;55.30;;;;;;5029779;28;20488;-86
2022/09/07 13:37:01;;;;;;;3.83;1.23;;;30.20;55.50;;;;;;5028593;28;20475;-83
2022/09/07 13:39:36;;;;;;;1.90;1.70;;;30.50;54.80;;;;;;5029840;28;21631;-85